John Murtha Johnstown Cambria County Airport
KJST : now visible

Airfield :











YOU CAN JOIN US ON...

 
LOGIN :

Register | Disclaimer

   EN    FR    IT 

 









Legend :    VFR   Marginal VFR   IFR   Intensive IFR   Very Intensive IFR
Visi :
Ceiling :
>= 8 km
>= 3000ft
5 to 8 km
1000 to 3000 ft
1500m to 5 km
500 to 1000 ft
800 to 1500m
200 to 500 ft
< 800m
< 200 ft
Symbols :   Thunderstorms  Fog  Heavy snow  Heavy precipitations  Wind > 20 kt






- Airport Elevation : 2284 ft
- IATA code : JST


KJST - John Murtha Johnstown Cambria County

EXPIRED METARs :
  • 011639Z AUTO 24024G36KT 1 1/4SM -RA FEW012 BKN023 23/19 A3014 RMK AO2 PK WND 24036/1637 RAB36 P0013 T02280189 TSNO
  • 012154Z AUTO 24009KT 10SM FEW043 27/18 A3004 RMK AO2 SLP156 T02720178 TSNO
  • 012054Z AUTO 25010KT 10SM BKN036 28/18 A3005 RMK AO2 SLP158 T02780183 56017 TSNO
  • 010554Z AUTO 21005KT 10SM CLR 19/13 A3016 RMK AO2 SLP198 T01940133 10244 20189 58007 TSNO
  • 011954Z AUTO 22009KT 200V260 10SM CLR 27/18 A3007 RMK AO2 SLP164 T02720178 TSNO

TAF KJST
Valid from the 01 at 19:00 until the 02 at 18:00 UTC


011907Z 0119/0218 21010G16KT P6SM SCT050
FM020100 22008KT P6SM VCSH BKN050 OVC100
FM021100 25009KT 6SM BR OVC020
FM021500 28010KT P6SM OVC050
KZOB FIR / North America



MET'MAP, your aeronautical weather chart ! - Copyright ORBIFLY December 2007 - Disclaimer

ORBIFLY MET'MAP TEAM :

Programming & Development : Alexandra Zaïnal
Original concept : Baudouin d'Aumeries
Technical & hardware support : Manuel Goepfert
Assistance : Marc-Olivier Méhu




SOURCES & CREDITS :

   NOAA       Earth
Advisory